sensor_id;sensor_type;location;lat;lon;timestamp;temperature;humidity
16955;DHT22;8594;52.052;8.354;2023-09-07T00:00:58;25.20;99.90
16955;DHT22;8594;52.052;8.354;2023-09-07T00:03:26;25.10;99.90
16955;DHT22;8594;52.052;8.354;2023-09-07T00:05:53;25.30;99.90
16955;DHT22;8594;52.052;8.354;2023-09-07T00:08:19;25.10;99.90
16955;DHT22;8594;52.052;8.354;2023-09-07T00:10:46;25.00;99.90
16955;DHT22;8594;52.052;8.354;2023-09-07T00:13:13;24.80;99.90
16955;DHT22;8594;52.052;8.354;2023-09-07T00:15:41;24.80;99.90
16955;DHT22;8594;52.052;8.354;2023-09-07T00:18:08;24.60;99.90
16955;DHT22;8594;52.052;8.354;2023-09-07T00:20:35;24.70;99.90
16955;DHT22;8594;52.052;8.354;2023-09-07T00:23:03;24.40;99.90
16955;DHT22;8594;52.052;8.354;2023-09-07T00:25:30;24.60;99.90
16955;DHT22;8594;52.052;8.354;2023-09-07T00:27:56;24.70;99.90
16955;DHT22;8594;52.052;8.354;2023-09-07T00:30:23;24.70;99.90
16955;DHT22;8594;52.052;8.354;2023-09-07T00:32:51;24.70;99.90
16955;DHT22;8594;52.052;8.354;2023-09-07T00:35:18;24.70;99.90
16955;DHT22;8594;52.052;8.354;2023-09-07T00:37:46;24.60;99.90
16955;DHT22;8594;52.052;8.354;2023-09-07T00:40:13;24.80;99.90
16955;DHT22;8594;52.052;8.354;2023-09-07T00:42:40;24.80;99.90
16955;DHT22;8594;52.052;8.354;2023-09-07T00:45:07;24.80;99.90
16955;DHT22;8594;52.052;8.354;2023-09-07T00:47:35;24.80;99.90
16955;DHT22;8594;52.052;8.354;2023-09-07T00:50:05;24.80;99.90
16955;DHT22;8594;52.052;8.354;2023-09-07T00:52:32;24.80;99.90
16955;DHT22;8594;52.052;8.354;2023-09-07T00:55:02;24.70;99.90
16955;DHT22;8594;52.052;8.354;2023-09-07T00:57:29;24.70;99.90
16955;DHT22;8594;52.052;8.354;2023-09-07T00:59:57;24.60;99.90
16955;DHT22;8594;52.052;8.354;2023-09-07T01:02:24;24.50;99.90
16955;DHT22;8594;52.052;8.354;2023-09-07T01:04:51;24.40;99.90
16955;DHT22;8594;52.052;8.354;2023-09-07T01:07:22;24.40;99.90
16955;DHT22;8594;52.052;8.354;2023-09-07T01:09:54;24.30;99.90
16955;DHT22;8594;52.052;8.354;2023-09-07T01:12:24;24.30;99.90
16955;DHT22;8594;52.052;8.354;2023-09-07T01:14:51;24.20;99.90
16955;DHT22;8594;52.052;8.354;2023-09-07T01:17:18;24.20;99.90
16955;DHT22;8594;52.052;8.354;2023-09-07T01:19:48;24.20;99.90
16955;DHT22;8594;52.052;8.354;2023-09-07T01:22:17;24.20;99.90
16955;DHT22;8594;52.052;8.354;2023-09-07T01:24:45;24.30;99.90
16955;DHT22;8594;52.052;8.354;2023-09-07T01:27:14;24.20;99.90
16955;DHT22;8594;52.052;8.354;2023-09-07T01:29:40;24.10;99.90
16955;DHT22;8594;52.052;8.354;2023-09-07T01:32:07;24.10;99.90
16955;DHT22;8594;52.052;8.354;2023-09-07T01:34:35;24.10;99.90
16955;DHT22;8594;52.052;8.354;2023-09-07T01:37:02;24.10;99.90
16955;DHT22;8594;52.052;8.354;2023-09-07T01:39:30;24.10;99.90
16955;DHT22;8594;52.052;8.354;2023-09-07T01:41:57;24.00;99.90
16955;DHT22;8594;52.052;8.354;2023-09-07T01:44:24;23.90;99.90
16955;DHT22;8594;52.052;8.354;2023-09-07T01:46:52;24.10;99.90
16955;DHT22;8594;52.052;8.354;2023-09-07T01:49:19;24.00;99.90
16955;DHT22;8594;52.052;8.354;2023-09-07T01:51:46;24.00;99.90
16955;DHT22;8594;52.052;8.354;2023-09-07T01:54:12;23.80;99.90
16955;DHT22;8594;52.052;8.354;2023-09-07T01:56:40;23.80;99.90
16955;DHT22;8594;52.052;8.354;2023-09-07T01:59:07;24.00;99.90
16955;DHT22;8594;52.052;8.354;2023-09-07T02:01:34;23.70;99.90
16955;DHT22;8594;52.052;8.354;2023-09-07T02:04:03;23.60;99.90
16955;DHT22;8594;52.052;8.354;2023-09-07T02:06:30;23.70;99.90
16955;DHT22;8594;52.052;8.354;2023-09-07T02:08:57;23.70;99.90
16955;DHT22;8594;52.052;8.354;2023-09-07T02:11:24;23.70;99.90
16955;DHT22;8594;52.052;8.354;2023-09-07T02:13:52;23.70;99.90
16955;DHT22;8594;52.052;8.354;2023-09-07T02:16:19;23.60;99.90
16955;DHT22;8594;52.052;8.354;2023-09-07T02:18:49;23.60;99.90
16955;DHT22;8594;52.052;8.354;2023-09-07T02:21:16;23.70;99.90
16955;DHT22;8594;52.052;8.354;2023-09-07T02:23:43;23.50;99.90
16955;DHT22;8594;52.052;8.354;2023-09-07T02:26:10;23.40;99.90
16955;DHT22;8594;52.052;8.354;2023-09-07T02:28:37;23.30;99.90
16955;DHT22;8594;52.052;8.354;2023-09-07T02:31:06;23.60;99.90
16955;DHT22;8594;52.052;8.354;2023-09-07T02:33:33;23.60;99.90
16955;DHT22;8594;52.052;8.354;2023-09-07T02:36:00;23.50;99.90
16955;DHT22;8594;52.052;8.354;2023-09-07T02:38:27;23.50;99.90
16955;DHT22;8594;52.052;8.354;2023-09-07T02:40:57;23.40;99.90
16955;DHT22;8594;52.052;8.354;2023-09-07T02:43:24;23.40;99.90
16955;DHT22;8594;52.052;8.354;2023-09-07T02:45:51;23.60;99.90
16955;DHT22;8594;52.052;8.354;2023-09-07T02:48:19;23.70;99.90
16955;DHT22;8594;52.052;8.354;2023-09-07T02:50:48;23.60;99.90
16955;DHT22;8594;52.052;8.354;2023-09-07T02:53:16;23.60;99.90
16955;DHT22;8594;52.052;8.354;2023-09-07T02:55:42;23.70;99.90
16955;DHT22;8594;52.052;8.354;2023-09-07T02:58:09;23.60;99.90
16955;DHT22;8594;52.052;8.354;2023-09-07T03:00:41;23.50;99.90
16955;DHT22;8594;52.052;8.354;2023-09-07T03:03:10;23.50;99.90
16955;DHT22;8594;52.052;8.354;2023-09-07T03:05:38;23.50;99.90
16955;DHT22;8594;52.052;8.354;2023-09-07T03:08:06;23.50;99.90
16955;DHT22;8594;52.052;8.354;2023-09-07T03:10:34;23.40;99.90
16955;DHT22;8594;52.052;8.354;2023-09-07T03:13:01;23.50;99.90
16955;DHT22;8594;52.052;8.354;2023-09-07T03:15:29;23.50;99.90
16955;DHT22;8594;52.052;8.354;2023-09-07T03:17:56;23.40;99.90
16955;DHT22;8594;52.052;8.354;2023-09-07T03:20:22;23.60;99.90
16955;DHT22;8594;52.052;8.354;2023-09-07T03:22:51;23.40;99.90
16955;DHT22;8594;52.052;8.354;2023-09-07T03:25:18;23.30;99.90
16955;DHT22;8594;52.052;8.354;2023-09-07T03:27:45;23.40;99.90
16955;DHT22;8594;52.052;8.354;2023-09-07T03:30:12;23.20;99.90
16955;DHT22;8594;52.052;8.354;2023-09-07T03:32:38;23.20;99.90
16955;DHT22;8594;52.052;8.354;2023-09-07T03:35:06;23.30;99.90
16955;DHT22;8594;52.052;8.354;2023-09-07T03:37:35;23.30;99.90
16955;DHT22;8594;52.052;8.354;2023-09-07T03:40:05;23.20;99.90
16955;DHT22;8594;52.052;8.354;2023-09-07T03:42:35;23.20;99.90
16955;DHT22;8594;52.052;8.354;2023-09-07T03:45:03;23.20;99.90
16955;DHT22;8594;52.052;8.354;2023-09-07T03:47:30;23.20;99.90
16955;DHT22;8594;52.052;8.354;2023-09-07T03:49:57;23.40;99.90
16955;DHT22;8594;52.052;8.354;2023-09-07T03:52:26;23.20;99.90
16955;DHT22;8594;52.052;8.354;2023-09-07T03:54:54;23.40;99.90
16955;DHT22;8594;52.052;8.354;2023-09-07T03:57:23;23.40;99.90
16955;DHT22;8594;52.052;8.354;2023-09-07T03:59:51;23.40;99.90
16955;DHT22;8594;52.052;8.354;2023-09-07T04:02:18;23.30;99.90
16955;DHT22;8594;52.052;8.354;2023-09-07T04:04:48;23.20;99.90
16955;DHT22;8594;52.052;8.354;2023-09-07T04:07:17;23.20;99.90
16955;DHT22;8594;52.052;8.354;2023-09-07T04:09:44;23.00;99.90
16955;DHT22;8594;52.052;8.354;2023-09-07T04:12:11;22.90;99.90
16955;DHT22;8594;52.052;8.354;2023-09-07T04:14:40;22.80;99.90
16955;DHT22;8594;52.052;8.354;2023-09-07T04:17:08;22.80;99.90
16955;DHT22;8594;52.052;8.354;2023-09-07T04:19:34;22.80;99.90
16955;DHT22;8594;52.052;8.354;2023-09-07T04:22:01;23.00;99.90
16955;DHT22;8594;52.052;8.354;2023-09-07T04:24:28;23.00;99.90
16955;DHT22;8594;52.052;8.354;2023-09-07T04:26:58;23.00;99.90
16955;DHT22;8594;52.052;8.354;2023-09-07T04:29:26;22.90;99.90
16955;DHT22;8594;52.052;8.354;2023-09-07T04:31:55;22.90;99.90
16955;DHT22;8594;52.052;8.354;2023-09-07T04:34:22;22.90;99.90
16955;DHT22;8594;52.052;8.354;2023-09-07T04:36:49;22.80;99.90
16955;DHT22;8594;52.052;8.354;2023-09-07T04:39:16;22.80;99.90
16955;DHT22;8594;52.052;8.354;2023-09-07T04:41:43;22.70;99.90
16955;DHT22;8594;52.052;8.354;2023-09-07T04:44:10;22.70;99.90
16955;DHT22;8594;52.052;8.354;2023-09-07T04:46:37;22.90;99.90
16955;DHT22;8594;52.052;8.354;2023-09-07T04:49:05;22.80;99.90
16955;DHT22;8594;52.052;8.354;2023-09-07T04:51:32;22.80;99.90
16955;DHT22;8594;52.052;8.354;2023-09-07T04:53:59;22.80;99.90
16955;DHT22;8594;52.052;8.354;2023-09-07T04:56:26;22.70;99.90
16955;DHT22;8594;52.052;8.354;2023-09-07T04:58:54;22.80;99.90
16955;DHT22;8594;52.052;8.354;2023-09-07T05:01:21;22.90;99.90
16955;DHT22;8594;52.052;8.354;2023-09-07T05:03:48;22.70;99.90
16955;DHT22;8594;52.052;8.354;2023-09-07T05:06:17;22.70;99.90
16955;DHT22;8594;52.052;8.354;2023-09-07T05:08:44;22.60;99.90
16955;DHT22;8594;52.052;8.354;2023-09-07T05:11:11;22.60;99.90
16955;DHT22;8594;52.052;8.354;2023-09-07T05:13:38;22.70;99.90
16955;DHT22;8594;52.052;8.354;2023-09-07T05:16:05;22.80;99.90
16955;DHT22;8594;52.052;8.354;2023-09-07T05:18:32;22.90;99.90
16955;DHT22;8594;52.052;8.354;2023-09-07T05:20:58;23.00;99.90
16955;DHT22;8594;52.052;8.354;2023-09-07T05:23:27;23.00;99.90
16955;DHT22;8594;52.052;8.354;2023-09-07T05:25:54;23.10;99.90
16955;DHT22;8594;52.052;8.354;2023-09-07T05:28:22;23.00;99.90
16955;DHT22;8594;52.052;8.354;2023-09-07T05:30:50;23.00;99.90
16955;DHT22;8594;52.052;8.354;2023-09-07T05:33:17;23.00;99.90
16955;DHT22;8594;52.052;8.354;2023-09-07T05:35:44;23.20;99.90
16955;DHT22;8594;52.052;8.354;2023-09-07T05:38:12;23.30;99.90
16955;DHT22;8594;52.052;8.354;2023-09-07T05:40:41;23.40;99.90
16955;DHT22;8594;52.052;8.354;2023-09-07T05:43:09;23.60;99.90
16955;DHT22;8594;52.052;8.354;2023-09-07T05:45:39;23.90;99.90
16955;DHT22;8594;52.052;8.354;2023-09-07T05:48:07;23.90;99.90
16955;DHT22;8594;52.052;8.354;2023-09-07T05:50:36;24.00;99.90
16955;DHT22;8594;52.052;8.354;2023-09-07T05:53:04;24.20;99.90
16955;DHT22;8594;52.052;8.354;2023-09-07T05:55:31;24.20;99.90
16955;DHT22;8594;52.052;8.354;2023-09-07T05:57:59;24.20;99.90
16955;DHT22;8594;52.052;8.354;2023-09-07T06:00:30;24.10;99.90
16955;DHT22;8594;52.052;8.354;2023-09-07T06:02:57;24.00;99.90
16955;DHT22;8594;52.052;8.354;2023-09-07T06:05:24;24.00;99.90
16955;DHT22;8594;52.052;8.354;2023-09-07T06:07:51;23.90;99.90
16955;DHT22;8594;52.052;8.354;2023-09-07T06:10:18;23.70;99.90
16955;DHT22;8594;52.052;8.354;2023-09-07T06:12:45;23.80;99.90
16955;DHT22;8594;52.052;8.354;2023-09-07T06:15:13;23.80;99.90
16955;DHT22;8594;52.052;8.354;2023-09-07T06:17:40;23.80;99.90
16955;DHT22;8594;52.052;8.354;2023-09-07T06:20:08;23.80;99.90
16955;DHT22;8594;52.052;8.354;2023-09-07T06:22:35;23.80;99.90
16955;DHT22;8594;52.052;8.354;2023-09-07T06:25:03;23.90;99.90
16955;DHT22;8594;52.052;8.354;2023-09-07T06:27:30;24.00;99.90
16955;DHT22;8594;52.052;8.354;2023-09-07T06:29:56;24.20;99.90
16955;DHT22;8594;52.052;8.354;2023-09-07T06:32:25;24.40;99.90
16955;DHT22;8594;52.052;8.354;2023-09-07T06:34:52;24.70;99.90
16955;DHT22;8594;52.052;8.354;2023-09-07T06:37:19;24.80;99.90
16955;DHT22;8594;52.052;8.354;2023-09-07T06:39:45;24.80;99.90
16955;DHT22;8594;52.052;8.354;2023-09-07T06:42:12;25.10;99.90
16955;DHT22;8594;52.052;8.354;2023-09-07T06:44:41;25.10;99.90
16955;DHT22;8594;52.052;8.354;2023-09-07T06:47:08;25.20;99.90
16955;DHT22;8594;52.052;8.354;2023-09-07T06:49:37;25.30;99.90
16955;DHT22;8594;52.052;8.354;2023-09-07T06:52:04;25.40;99.90
16955;DHT22;8594;52.052;8.354;2023-09-07T06:54:31;25.50;99.90
16955;DHT22;8594;52.052;8.354;2023-09-07T06:56:58;25.60;99.90
16955;DHT22;8594;52.052;8.354;2023-09-07T06:59:25;25.50;99.90
16955;DHT22;8594;52.052;8.354;2023-09-07T07:01:52;25.70;99.90
16955;DHT22;8594;52.052;8.354;2023-09-07T07:04:19;25.80;99.90
16955;DHT22;8594;52.052;8.354;2023-09-07T07:06:47;25.70;99.90
16955;DHT22;8594;52.052;8.354;2023-09-07T07:09:14;26.00;99.90
16955;DHT22;8594;52.052;8.354;2023-09-07T07:11:41;26.00;99.90
16955;DHT22;8594;52.052;8.354;2023-09-07T07:14:08;25.90;99.90
16955;DHT22;8594;52.052;8.354;2023-09-07T07:16:36;25.90;99.90
16955;DHT22;8594;52.052;8.354;2023-09-07T07:19:03;26.10;99.90
16955;DHT22;8594;52.052;8.354;2023-09-07T07:21:30;26.10;99.90
16955;DHT22;8594;52.052;8.354;2023-09-07T07:23:58;26.20;99.90
16955;DHT22;8594;52.052;8.354;2023-09-07T07:26:25;26.40;99.90
16955;DHT22;8594;52.052;8.354;2023-09-07T07:28:52;26.50;99.90
16955;DHT22;8594;52.052;8.354;2023-09-07T07:31:20;26.50;99.90
16955;DHT22;8594;52.052;8.354;2023-09-07T07:33:47;26.70;99.90
16955;DHT22;8594;52.052;8.354;2023-09-07T07:36:14;26.40;99.90
16955;DHT22;8594;52.052;8.354;2023-09-07T07:38:41;26.30;99.90
16955;DHT22;8594;52.052;8.354;2023-09-07T07:41:09;26.30;99.90
16955;DHT22;8594;52.052;8.354;2023-09-07T07:43:36;26.60;99.90
16955;DHT22;8594;52.052;8.354;2023-09-07T07:46:03;26.70;99.90
16955;DHT22;8594;52.052;8.354;2023-09-07T07:48:30;26.80;99.90
16955;DHT22;8594;52.052;8.354;2023-09-07T07:51:02;26.90;99.90
16955;DHT22;8594;52.052;8.354;2023-09-07T07:53:30;27.10;99.90
16955;DHT22;8594;52.052;8.354;2023-09-07T07:55:57;26.90;99.90
16955;DHT22;8594;52.052;8.354;2023-09-07T07:58:25;27.00;99.90
16955;DHT22;8594;52.052;8.354;2023-09-07T08:00:52;27.00;99.90
16955;DHT22;8594;52.052;8.354;2023-09-07T08:03:23;27.10;99.90
16955;DHT22;8594;52.052;8.354;2023-09-07T08:05:50;27.10;99.90
16955;DHT22;8594;52.052;8.354;2023-09-07T08:08:17;27.00;99.90
16955;DHT22;8594;52.052;8.354;2023-09-07T08:10:44;27.10;99.90
16955;DHT22;8594;52.052;8.354;2023-09-07T08:13:12;27.20;99.90
16955;DHT22;8594;52.052;8.354;2023-09-07T08:15:40;27.30;99.90
16955;DHT22;8594;52.052;8.354;2023-09-07T08:18:08;27.50;99.90
16955;DHT22;8594;52.052;8.354;2023-09-07T08:20:35;27.60;99.90
16955;DHT22;8594;52.052;8.354;2023-09-07T08:23:05;27.70;99.90
16955;DHT22;8594;52.052;8.354;2023-09-07T08:25:35;27.70;99.90
16955;DHT22;8594;52.052;8.354;2023-09-07T08:28:02;27.70;99.90
16955;DHT22;8594;52.052;8.354;2023-09-07T08:30:31;27.70;99.90
16955;DHT22;8594;52.052;8.354;2023-09-07T08:33:00;28.00;99.90
16955;DHT22;8594;52.052;8.354;2023-09-07T08:35:27;27.90;99.90
16955;DHT22;8594;52.052;8.354;2023-09-07T08:37:55;27.90;99.90
16955;DHT22;8594;52.052;8.354;2023-09-07T08:40:24;27.90;99.90
16955;DHT22;8594;52.052;8.354;2023-09-07T08:42:53;28.00;99.90
16955;DHT22;8594;52.052;8.354;2023-09-07T08:45:21;28.00;99.90
16955;DHT22;8594;52.052;8.354;2023-09-07T08:47:52;28.00;99.90
16955;DHT22;8594;52.052;8.354;2023-09-07T08:50:23;28.30;99.90
16955;DHT22;8594;52.052;8.354;2023-09-07T08:52:52;28.30;99.90
16955;DHT22;8594;52.052;8.354;2023-09-07T08:55:20;28.50;99.90
16955;DHT22;8594;52.052;8.354;2023-09-07T08:57:47;28.50;99.90
16955;DHT22;8594;52.052;8.354;2023-09-07T09:00:16;28.30;99.90
16955;DHT22;8594;52.052;8.354;2023-09-07T09:02:46;28.40;99.90
16955;DHT22;8594;52.052;8.354;2023-09-07T09:05:14;28.20;99.90
16955;DHT22;8594;52.052;8.354;2023-09-07T09:07:44;28.30;99.90
16955;DHT22;8594;52.052;8.354;2023-09-07T09:10:11;28.30;99.90
16955;DHT22;8594;52.052;8.354;2023-09-07T09:12:45;28.20;99.90
16955;DHT22;8594;52.052;8.354;2023-09-07T09:15:12;28.30;99.90
16955;DHT22;8594;52.052;8.354;2023-09-07T09:17:39;28.50;99.90
16955;DHT22;8594;52.052;8.354;2023-09-07T09:20:20;28.40;99.90
16955;DHT22;8594;52.052;8.354;2023-09-07T09:22:50;28.50;99.90
16955;DHT22;8594;52.052;8.354;2023-09-07T09:25:18;28.50;99.90
16955;DHT22;8594;52.052;8.354;2023-09-07T09:27:46;28.70;99.90
16955;DHT22;8594;52.052;8.354;2023-09-07T09:30:13;28.50;99.90
16955;DHT22;8594;52.052;8.354;2023-09-07T09:32:42;28.80;99.90
16955;DHT22;8594;52.052;8.354;2023-09-07T09:35:09;28.60;99.90
16955;DHT22;8594;52.052;8.354;2023-09-07T09:37:46;28.40;99.90
16955;DHT22;8594;52.052;8.354;2023-09-07T09:40:15;28.70;99.90
16955;DHT22;8594;52.052;8.354;2023-09-07T09:42:43;28.90;99.90
16955;DHT22;8594;52.052;8.354;2023-09-07T09:45:11;29.00;99.90
16955;DHT22;8594;52.052;8.354;2023-09-07T09:47:39;29.20;99.90
16955;DHT22;8594;52.052;8.354;2023-09-07T09:50:09;29.10;99.90
16955;DHT22;8594;52.052;8.354;2023-09-07T09:52:37;29.30;99.90
16955;DHT22;8594;52.052;8.354;2023-09-07T09:55:05;29.10;99.90
16955;DHT22;8594;52.052;8.354;2023-09-07T09:57:36;29.20;99.90
16955;DHT22;8594;52.052;8.354;2023-09-07T10:00:04;29.40;99.90
16955;DHT22;8594;52.052;8.354;2023-09-07T10:03:04;29.40;99.90
16955;DHT22;8594;52.052;8.354;2023-09-07T10:05:36;29.40;99.90
16955;DHT22;8594;52.052;8.354;2023-09-07T10:08:08;29.50;99.90
16955;DHT22;8594;52.052;8.354;2023-09-07T10:10:40;29.60;99.90
16955;DHT22;8594;52.052;8.354;2023-09-07T10:13:09;29.70;99.90
16955;DHT22;8594;52.052;8.354;2023-09-07T10:15:40;29.60;99.90
16955;DHT22;8594;52.052;8.354;2023-09-07T10:18:10;29.70;99.90
16955;DHT22;8594;52.052;8.354;2023-09-07T10:20:49;29.60;99.90
16955;DHT22;8594;52.052;8.354;2023-09-07T10:23:17;29.60;99.90
16955;DHT22;8594;52.052;8.354;2023-09-07T10:25:48;29.50;99.90
16955;DHT22;8594;52.052;8.354;2023-09-07T10:28:24;29.60;99.90
16955;DHT22;8594;52.052;8.354;2023-09-07T10:31:01;29.80;99.90
16955;DHT22;8594;52.052;8.354;2023-09-07T10:33:30;29.70;99.90
16955;DHT22;8594;52.052;8.354;2023-09-07T10:35:58;29.90;99.90
16955;DHT22;8594;52.052;8.354;2023-09-07T10:38:25;29.90;99.90
16955;DHT22;8594;52.052;8.354;2023-09-07T10:40:56;29.90;99.90
16955;DHT22;8594;52.052;8.354;2023-09-07T10:43:26;30.00;99.90
16955;DHT22;8594;52.052;8.354;2023-09-07T10:45:54;30.30;99.90
16955;DHT22;8594;52.052;8.354;2023-09-07T10:48:22;30.40;99.90
16955;DHT22;8594;52.052;8.354;2023-09-07T10:50:50;30.40;99.90
16955;DHT22;8594;52.052;8.354;2023-09-07T10:53:26;30.60;99.90
16955;DHT22;8594;52.052;8.354;2023-09-07T10:55:53;30.40;99.90
16955;DHT22;8594;52.052;8.354;2023-09-07T10:58:27;30.20;99.90
16955;DHT22;8594;52.052;8.354;2023-09-07T11:00:55;30.10;99.90
16955;DHT22;8594;52.052;8.354;2023-09-07T11:03:22;30.40;99.90
16955;DHT22;8594;52.052;8.354;2023-09-07T11:05:53;30.40;99.90
16955;DHT22;8594;52.052;8.354;2023-09-07T11:08:21;30.40;99.90
16955;DHT22;8594;52.052;8.354;2023-09-07T11:10:50;30.30;99.90
16955;DHT22;8594;52.052;8.354;2023-09-07T11:13:18;30.10;99.90
16955;DHT22;8594;52.052;8.354;2023-09-07T11:15:46;30.30;99.90
16955;DHT22;8594;52.052;8.354;2023-09-07T11:18:13;30.50;99.90
16955;DHT22;8594;52.052;8.354;2023-09-07T11:20:40;30.30;99.90
16955;DHT22;8594;52.052;8.354;2023-09-07T11:23:08;30.30;99.90
16955;DHT22;8594;52.052;8.354;2023-09-07T11:25:36;30.30;99.90
16955;DHT22;8594;52.052;8.354;2023-09-07T11:28:04;30.10;99.90
16955;DHT22;8594;52.052;8.354;2023-09-07T11:30:32;30.10;99.90
16955;DHT22;8594;52.052;8.354;2023-09-07T11:33:05;30.30;99.90
16955;DHT22;8594;52.052;8.354;2023-09-07T11:35:34;30.40;99.90
16955;DHT22;8594;52.052;8.354;2023-09-07T11:38:02;30.50;99.90
16955;DHT22;8594;52.052;8.354;2023-09-07T11:40:30;30.60;99.90
16955;DHT22;8594;52.052;8.354;2023-09-07T11:42:57;30.50;99.90
16955;DHT22;8594;52.052;8.354;2023-09-07T11:45:24;30.40;99.90
16955;DHT22;8594;52.052;8.354;2023-09-07T11:47:52;30.50;99.90
16955;DHT22;8594;52.052;8.354;2023-09-07T11:50:23;30.70;99.90
16955;DHT22;8594;52.052;8.354;2023-09-07T11:52:51;31.00;99.90
16955;DHT22;8594;52.052;8.354;2023-09-07T11:55:18;30.80;99.90
16955;DHT22;8594;52.052;8.354;2023-09-07T11:57:44;30.90;99.90
16955;DHT22;8594;52.052;8.354;2023-09-07T12:00:12;31.00;99.90
16955;DHT22;8594;52.052;8.354;2023-09-07T12:02:40;30.80;99.90
16955;DHT22;8594;52.052;8.354;2023-09-07T12:05:08;30.90;99.90
16955;DHT22;8594;52.052;8.354;2023-09-07T12:07:36;31.00;99.90
16955;DHT22;8594;52.052;8.354;2023-09-07T12:10:04;31.00;99.90
16955;DHT22;8594;52.052;8.354;2023-09-07T12:12:35;30.90;99.90
16955;DHT22;8594;52.052;8.354;2023-09-07T12:15:03;31.00;99.90
16955;DHT22;8594;52.052;8.354;2023-09-07T12:17:30;31.00;99.90
16955;DHT22;8594;52.052;8.354;2023-09-07T12:19:57;31.10;99.90
16955;DHT22;8594;52.052;8.354;2023-09-07T12:22:24;31.10;99.90
16955;DHT22;8594;52.052;8.354;2023-09-07T12:24:52;31.00;99.90
16955;DHT22;8594;52.052;8.354;2023-09-07T12:27:19;31.00;99.90
16955;DHT22;8594;52.052;8.354;2023-09-07T12:29:46;31.20;99.90
16955;DHT22;8594;52.052;8.354;2023-09-07T12:32:14;31.30;99.70
16955;DHT22;8594;52.052;8.354;2023-09-07T12:34:40;31.30;99.80
16955;DHT22;8594;52.052;8.354;2023-09-07T12:37:07;31.40;98.70
16955;DHT22;8594;52.052;8.354;2023-09-07T12:39:34;31.30;98.30
16955;DHT22;8594;52.052;8.354;2023-09-07T12:42:03;31.20;98.60
16955;DHT22;8594;52.052;8.354;2023-09-07T12:44:30;31.20;98.30
16955;DHT22;8594;52.052;8.354;2023-09-07T12:46:57;31.20;98.80
16955;DHT22;8594;52.052;8.354;2023-09-07T12:49:24;31.20;99.70
16955;DHT22;8594;52.052;8.354;2023-09-07T12:51:51;31.20;98.50
16955;DHT22;8594;52.052;8.354;2023-09-07T12:54:18;30.90;97.60
16955;DHT22;8594;52.052;8.354;2023-09-07T12:56:45;30.90;97.90
16955;DHT22;8594;52.052;8.354;2023-09-07T12:59:13;31.00;98.10
16955;DHT22;8594;52.052;8.354;2023-09-07T13:01:40;31.00;98.70
16955;DHT22;8594;52.052;8.354;2023-09-07T13:04:07;31.00;98.90
16955;DHT22;8594;52.052;8.354;2023-09-07T13:06:36;31.00;98.90
16955;DHT22;8594;52.052;8.354;2023-09-07T13:09:04;31.20;98.30
16955;DHT22;8594;52.052;8.354;2023-09-07T13:11:31;31.40;98.30
16955;DHT22;8594;52.052;8.354;2023-09-07T13:13:58;31.50;99.10
16955;DHT22;8594;52.052;8.354;2023-09-07T13:16:26;31.50;99.20
16955;DHT22;8594;52.052;8.354;2023-09-07T13:18:53;31.50;99.30
16955;DHT22;8594;52.052;8.354;2023-09-07T13:21:20;31.50;99.60
16955;DHT22;8594;52.052;8.354;2023-09-07T13:23:47;31.30;99.70
16955;DHT22;8594;52.052;8.354;2023-09-07T13:26:13;31.10;99.90
16955;DHT22;8594;52.052;8.354;2023-09-07T13:28:40;31.30;99.90
16955;DHT22;8594;52.052;8.354;2023-09-07T13:31:07;31.30;99.30
16955;DHT22;8594;52.052;8.354;2023-09-07T13:33:35;31.10;99.90
16955;DHT22;8594;52.052;8.354;2023-09-07T13:36:03;31.00;99.90
16955;DHT22;8594;52.052;8.354;2023-09-07T13:38:30;31.00;99.90
16955;DHT22;8594;52.052;8.354;2023-09-07T13:40:57;31.20;99.50
16955;DHT22;8594;52.052;8.354;2023-09-07T13:43:24;31.20;99.50
16955;DHT22;8594;52.052;8.354;2023-09-07T13:45:51;31.30;99.90
16955;DHT22;8594;52.052;8.354;2023-09-07T13:48:18;31.40;99.60
16955;DHT22;8594;52.052;8.354;2023-09-07T13:50:46;31.30;98.80
16955;DHT22;8594;52.052;8.354;2023-09-07T13:53:14;31.40;99.30
16955;DHT22;8594;52.052;8.354;2023-09-07T13:55:40;31.30;98.80
16955;DHT22;8594;52.052;8.354;2023-09-07T13:58:09;31.30;99.70
16955;DHT22;8594;52.052;8.354;2023-09-07T14:00:36;31.40;98.90
16955;DHT22;8594;52.052;8.354;2023-09-07T14:03:04;31.40;98.50
16955;DHT22;8594;52.052;8.354;2023-09-07T14:05:31;31.50;98.80
16955;DHT22;8594;52.052;8.354;2023-09-07T14:07:59;31.60;99.70
16955;DHT22;8594;52.052;8.354;2023-09-07T14:10:26;31.50;99.50
16955;DHT22;8594;52.052;8.354;2023-09-07T14:12:53;31.50;99.90
16955;DHT22;8594;52.052;8.354;2023-09-07T14:15:20;31.50;99.90
16955;DHT22;8594;52.052;8.354;2023-09-07T14:17:47;31.40;99.90
16955;DHT22;8594;52.052;8.354;2023-09-07T14:20:14;31.40;99.90
16955;DHT22;8594;52.052;8.354;2023-09-07T14:22:41;31.50;99.90
16955;DHT22;8594;52.052;8.354;2023-09-07T14:25:09;31.50;99.90
16955;DHT22;8594;52.052;8.354;2023-09-07T14:27:36;31.50;99.90
16955;DHT22;8594;52.052;8.354;2023-09-07T14:30:03;31.30;99.90
16955;DHT22;8594;52.052;8.354;2023-09-07T14:32:30;31.10;99.90
16955;DHT22;8594;52.052;8.354;2023-09-07T14:34:57;31.00;99.90
16955;DHT22;8594;52.052;8.354;2023-09-07T14:37:24;31.10;99.90
16955;DHT22;8594;52.052;8.354;2023-09-07T14:39:51;31.20;99.90
16955;DHT22;8594;52.052;8.354;2023-09-07T14:42:24;31.10;99.90
16955;DHT22;8594;52.052;8.354;2023-09-07T14:44:51;31.00;99.90
16955;DHT22;8594;52.052;8.354;2023-09-07T14:47:18;30.90;99.90
16955;DHT22;8594;52.052;8.354;2023-09-07T14:49:50;30.80;99.90
16955;DHT22;8594;52.052;8.354;2023-09-07T14:52:18;30.90;99.90
16955;DHT22;8594;52.052;8.354;2023-09-07T14:54:47;30.90;99.80
16955;DHT22;8594;52.052;8.354;2023-09-07T14:57:14;30.70;99.20
16955;DHT22;8594;52.052;8.354;2023-09-07T14:59:43;30.70;98.70
16955;DHT22;8594;52.052;8.354;2023-09-07T15:02:09;30.70;99.40
16955;DHT22;8594;52.052;8.354;2023-09-07T15:04:36;30.70;99.00
16955;DHT22;8594;52.052;8.354;2023-09-07T15:07:03;30.80;99.10
16955;DHT22;8594;52.052;8.354;2023-09-07T15:09:30;30.80;99.40
16955;DHT22;8594;52.052;8.354;2023-09-07T15:11:57;30.80;99.50
16955;DHT22;8594;52.052;8.354;2023-09-07T15:14:25;30.80;99.40
16955;DHT22;8594;52.052;8.354;2023-09-07T15:16:53;30.70;99.10
16955;DHT22;8594;52.052;8.354;2023-09-07T15:19:20;30.60;98.70
16955;DHT22;8594;52.052;8.354;2023-09-07T15:21:47;30.40;98.80
16955;DHT22;8594;52.052;8.354;2023-09-07T15:24:14;30.50;97.80
16955;DHT22;8594;52.052;8.354;2023-09-07T15:26:42;30.60;98.30
16955;DHT22;8594;52.052;8.354;2023-09-07T15:29:09;30.50;98.10
16955;DHT22;8594;52.052;8.354;2023-09-07T15:31:38;30.70;97.80
16955;DHT22;8594;52.052;8.354;2023-09-07T15:34:21;30.70;97.60
16955;DHT22;8594;52.052;8.354;2023-09-07T15:36:49;30.60;98.50
16955;DHT22;8594;52.052;8.354;2023-09-07T15:39:18;30.50;98.00
16955;DHT22;8594;52.052;8.354;2023-09-07T15:41:49;30.50;98.00
16955;DHT22;8594;52.052;8.354;2023-09-07T15:44:22;30.60;97.90
16955;DHT22;8594;52.052;8.354;2023-09-07T15:46:56;30.50;98.30
16955;DHT22;8594;52.052;8.354;2023-09-07T15:49:56;30.60;98.10